sensor_id;sensor_type;location;lat;lon;timestamp;temperature;humidity
8595;DHT22;4335;48.860;9.198;2023-03-14T00:01:27;10.20;99.90
8595;DHT22;4335;48.860;9.198;2023-03-14T00:04:03;10.30;99.90
8595;DHT22;4335;48.860;9.198;2023-03-14T00:06:31;10.20;99.90
8595;DHT22;4335;48.860;9.198;2023-03-14T00:09:01;10.30;99.90
8595;DHT22;4335;48.860;9.198;2023-03-14T00:11:31;10.30;99.90
8595;DHT22;4335;48.860;9.198;2023-03-14T00:14:00;10.30;99.90
8595;DHT22;4335;48.860;9.198;2023-03-14T00:16:34;10.30;99.90
8595;DHT22;4335;48.860;9.198;2023-03-14T00:19:02;10.30;99.90
8595;DHT22;4335;48.860;9.198;2023-03-14T00:21:32;10.30;99.90
8595;DHT22;4335;48.860;9.198;2023-03-14T00:23:59;10.30;99.90
8595;DHT22;4335;48.860;9.198;2023-03-14T00:26:27;10.30;99.90
8595;DHT22;4335;48.860;9.198;2023-03-14T00:28:55;10.30;99.90
8595;DHT22;4335;48.860;9.198;2023-03-14T00:31:26;10.30;99.90
8595;DHT22;4335;48.860;9.198;2023-03-14T00:33:54;10.30;99.90
8595;DHT22;4335;48.860;9.198;2023-03-14T00:36:26;10.20;99.90
8595;DHT22;4335;48.860;9.198;2023-03-14T00:38:54;10.20;99.90
8595;DHT22;4335;48.860;9.198;2023-03-14T00:41:23;10.20;99.90
8595;DHT22;4335;48.860;9.198;2023-03-14T00:43:51;10.20;99.90
8595;DHT22;4335;48.860;9.198;2023-03-14T00:46:25;10.20;99.90
8595;DHT22;4335;48.860;9.198;2023-03-14T00:48:53;10.20;99.90
8595;DHT22;4335;48.860;9.198;2023-03-14T00:51:23;10.20;99.90
8595;DHT22;4335;48.860;9.198;2023-03-14T00:53:53;10.30;99.90
8595;DHT22;4335;48.860;9.198;2023-03-14T00:56:20;10.20;99.90
8595;DHT22;4335;48.860;9.198;2023-03-14T00:59:00;10.30;99.90
8595;DHT22;4335;48.860;9.198;2023-03-14T01:01:35;10.40;99.90
8595;DHT22;4335;48.860;9.198;2023-03-14T01:04:06;10.30;99.90
8595;DHT22;4335;48.860;9.198;2023-03-14T01:06:33;10.30;99.90
8595;DHT22;4335;48.860;9.198;2023-03-14T01:09:03;10.30;99.90
8595;DHT22;4335;48.860;9.198;2023-03-14T01:11:34;10.30;99.90
8595;DHT22;4335;48.860;9.198;2023-03-14T01:14:02;10.30;99.90
8595;DHT22;4335;48.860;9.198;2023-03-14T01:16:34;10.30;99.90
8595;DHT22;4335;48.860;9.198;2023-03-14T01:19:05;10.40;99.90
8595;DHT22;4335;48.860;9.198;2023-03-14T01:21:33;10.40;99.90
8595;DHT22;4335;48.860;9.198;2023-03-14T01:24:03;10.40;99.90
8595;DHT22;4335;48.860;9.198;2023-03-14T01:26:33;10.40;99.90
8595;DHT22;4335;48.860;9.198;2023-03-14T01:29:01;10.40;99.90
8595;DHT22;4335;48.860;9.198;2023-03-14T01:31:36;10.40;99.90
8595;DHT22;4335;48.860;9.198;2023-03-14T01:34:03;10.40;99.90
8595;DHT22;4335;48.860;9.198;2023-03-14T01:36:31;10.40;99.90
8595;DHT22;4335;48.860;9.198;2023-03-14T01:39:01;10.40;99.90
8595;DHT22;4335;48.860;9.198;2023-03-14T01:41:32;10.40;99.90
8595;DHT22;4335;48.860;9.198;2023-03-14T01:44:12;10.40;99.90
8595;DHT22;4335;48.860;9.198;2023-03-14T01:46:45;10.50;99.90
8595;DHT22;4335;48.860;9.198;2023-03-14T01:49:20;10.40;99.90
8595;DHT22;4335;48.860;9.198;2023-03-14T01:51:54;10.50;99.90
8595;DHT22;4335;48.860;9.198;2023-03-14T01:54:25;10.50;99.90
8595;DHT22;4335;48.860;9.198;2023-03-14T01:56:57;10.50;99.90
8595;DHT22;4335;48.860;9.198;2023-03-14T01:59:25;10.40;99.90
8595;DHT22;4335;48.860;9.198;2023-03-14T02:01:57;10.50;99.90
8595;DHT22;4335;48.860;9.198;2023-03-14T02:04:27;10.40;99.90
8595;DHT22;4335;48.860;9.198;2023-03-14T02:07:03;10.50;99.90
8595;DHT22;4335;48.860;9.198;2023-03-14T02:09:39;10.40;99.90
8595;DHT22;4335;48.860;9.198;2023-03-14T02:12:16;10.40;99.90
8595;DHT22;4335;48.860;9.198;2023-03-14T02:14:43;10.40;99.90
8595;DHT22;4335;48.860;9.198;2023-03-14T02:17:17;10.50;99.90
8595;DHT22;4335;48.860;9.198;2023-03-14T02:22:49;10.60;99.90
8595;DHT22;4335;48.860;9.198;2023-03-14T02:25:22;10.50;99.90
8595;DHT22;4335;48.860;9.198;2023-03-14T02:27:54;10.50;99.90
8595;DHT22;4335;48.860;9.198;2023-03-14T02:30:30;10.40;99.90
8595;DHT22;4335;48.860;9.198;2023-03-14T02:33:01;10.40;99.90
8595;DHT22;4335;48.860;9.198;2023-03-14T02:35:33;10.40;99.90
8595;DHT22;4335;48.860;9.198;2023-03-14T02:38:06;10.40;99.90
8595;DHT22;4335;48.860;9.198;2023-03-14T02:40:45;10.40;99.90
8595;DHT22;4335;48.860;9.198;2023-03-14T02:43:14;10.40;99.90
8595;DHT22;4335;48.860;9.198;2023-03-14T02:45:49;10.40;99.90
8595;DHT22;4335;48.860;9.198;2023-03-14T02:48:28;10.40;99.90
8595;DHT22;4335;48.860;9.198;2023-03-14T02:51:03;10.40;99.90
8595;DHT22;4335;48.860;9.198;2023-03-14T02:53:32;10.40;99.90
8595;DHT22;4335;48.860;9.198;2023-03-14T02:56:03;10.40;99.90
8595;DHT22;4335;48.860;9.198;2023-03-14T02:58:32;10.40;99.90
8595;DHT22;4335;48.860;9.198;2023-03-14T03:01:03;10.40;99.90
8595;DHT22;4335;48.860;9.198;2023-03-14T03:03:36;10.30;99.90
8595;DHT22;4335;48.860;9.198;2023-03-14T03:06:04;10.30;99.90
8595;DHT22;4335;48.860;9.198;2023-03-14T03:08:34;10.40;99.90
8595;DHT22;4335;48.860;9.198;2023-03-14T03:11:04;10.30;99.90
8595;DHT22;4335;48.860;9.198;2023-03-14T03:13:33;10.30;99.90
8595;DHT22;4335;48.860;9.198;2023-03-14T03:16:01;10.30;99.90
8595;DHT22;4335;48.860;9.198;2023-03-14T03:18:28;10.30;99.90
8595;DHT22;4335;48.860;9.198;2023-03-14T03:21:03;10.30;99.90
8595;DHT22;4335;48.860;9.198;2023-03-14T03:23:31;10.20;99.90
8595;DHT22;4335;48.860;9.198;2023-03-14T03:26:05;10.30;99.90
8595;DHT22;4335;48.860;9.198;2023-03-14T03:28:34;10.30;99.90
8595;DHT22;4335;48.860;9.198;2023-03-14T03:31:09;10.30;99.90
8595;DHT22;4335;48.860;9.198;2023-03-14T03:33:36;10.30;99.90
8595;DHT22;4335;48.860;9.198;2023-03-14T03:36:08;10.30;99.90
8595;DHT22;4335;48.860;9.198;2023-03-14T03:38:36;10.30;99.90
8595;DHT22;4335;48.860;9.198;2023-03-14T03:41:05;10.30;99.90
8595;DHT22;4335;48.860;9.198;2023-03-14T03:43:40;10.30;99.90
8595;DHT22;4335;48.860;9.198;2023-03-14T03:46:08;10.30;99.90
8595;DHT22;4335;48.860;9.198;2023-03-14T03:48:36;10.20;99.90
8595;DHT22;4335;48.860;9.198;2023-03-14T03:51:03;10.20;99.90
8595;DHT22;4335;48.860;9.198;2023-03-14T03:53:37;10.20;99.90
8595;DHT22;4335;48.860;9.198;2023-03-14T03:56:05;10.20;99.90
8595;DHT22;4335;48.860;9.198;2023-03-14T03:58:34;10.20;99.90
8595;DHT22;4335;48.860;9.198;2023-03-14T04:01:03;10.20;99.90
8595;DHT22;4335;48.860;9.198;2023-03-14T04:03:33;10.10;99.90
8595;DHT22;4335;48.860;9.198;2023-03-14T04:06:02;10.20;99.90
8595;DHT22;4335;48.860;9.198;2023-03-14T04:08:36;10.20;99.90
8595;DHT22;4335;48.860;9.198;2023-03-14T04:11:07;10.10;99.90
8595;DHT22;4335;48.860;9.198;2023-03-14T04:13:36;10.10;99.90
8595;DHT22;4335;48.860;9.198;2023-03-14T04:16:08;10.10;99.90
8595;DHT22;4335;48.860;9.198;2023-03-14T04:18:39;10.10;99.90
8595;DHT22;4335;48.860;9.198;2023-03-14T04:21:09;10.00;99.90
8595;DHT22;4335;48.860;9.198;2023-03-14T04:23:39;10.00;99.90
8595;DHT22;4335;48.860;9.198;2023-03-14T04:26:06;10.00;99.90
8595;DHT22;4335;48.860;9.198;2023-03-14T04:28:35;10.00;99.90
8595;DHT22;4335;48.860;9.198;2023-03-14T04:31:07;10.00;99.90
8595;DHT22;4335;48.860;9.198;2023-03-14T04:33:35;9.90;99.90
8595;DHT22;4335;48.860;9.198;2023-03-14T04:36:06;9.90;99.90
8595;DHT22;4335;48.860;9.198;2023-03-14T04:38:49;9.90;99.90
8595;DHT22;4335;48.860;9.198;2023-03-14T04:41:19;9.90;99.90
8595;DHT22;4335;48.860;9.198;2023-03-14T04:43:50;9.90;99.90
8595;DHT22;4335;48.860;9.198;2023-03-14T04:46:25;9.90;99.90
8595;DHT22;4335;48.860;9.198;2023-03-14T04:48:52;9.80;99.90
8595;DHT22;4335;48.860;9.198;2023-03-14T04:51:25;9.80;99.90
8595;DHT22;4335;48.860;9.198;2023-03-14T04:54:08;9.70;99.90
8595;DHT22;4335;48.860;9.198;2023-03-14T04:56:35;9.80;99.90
8595;DHT22;4335;48.860;9.198;2023-03-14T04:59:05;9.80;99.90
8595;DHT22;4335;48.860;9.198;2023-03-14T05:01:32;9.70;99.90
8595;DHT22;4335;48.860;9.198;2023-03-14T05:04:00;9.70;99.90
8595;DHT22;4335;48.860;9.198;2023-03-14T05:06:30;9.70;99.90
8595;DHT22;4335;48.860;9.198;2023-03-14T05:08:57;9.70;99.90
8595;DHT22;4335;48.860;9.198;2023-03-14T05:11:27;9.70;99.90
8595;DHT22;4335;48.860;9.198;2023-03-14T05:13:55;9.70;99.90
8595;DHT22;4335;48.860;9.198;2023-03-14T05:16:26;9.60;99.90
8595;DHT22;4335;48.860;9.198;2023-03-14T05:18:53;9.60;99.90
8595;DHT22;4335;48.860;9.198;2023-03-14T05:21:20;9.70;99.90
8595;DHT22;4335;48.860;9.198;2023-03-14T05:23:48;9.60;99.90
8595;DHT22;4335;48.860;9.198;2023-03-14T05:26:19;9.60;99.90
8595;DHT22;4335;48.860;9.198;2023-03-14T05:28:47;9.50;99.90
8595;DHT22;4335;48.860;9.198;2023-03-14T05:31:17;9.50;99.90
8595;DHT22;4335;48.860;9.198;2023-03-14T05:33:49;9.50;99.90
8595;DHT22;4335;48.860;9.198;2023-03-14T05:36:22;9.50;99.90
8595;DHT22;4335;48.860;9.198;2023-03-14T05:38:58;9.50;99.90
8595;DHT22;4335;48.860;9.198;2023-03-14T05:41:26;9.50;99.90
8595;DHT22;4335;48.860;9.198;2023-03-14T05:43:53;9.50;99.90
8595;DHT22;4335;48.860;9.198;2023-03-14T05:46:21;9.50;99.90
8595;DHT22;4335;48.860;9.198;2023-03-14T05:48:55;9.50;99.90
8595;DHT22;4335;48.860;9.198;2023-03-14T05:51:25;9.40;99.90
8595;DHT22;4335;48.860;9.198;2023-03-14T05:53:52;9.50;99.90
8595;DHT22;4335;48.860;9.198;2023-03-14T05:56:23;9.60;99.90
8595;DHT22;4335;48.860;9.198;2023-03-14T05:58:50;9.70;99.90
8595;DHT22;4335;48.860;9.198;2023-03-14T06:01:17;9.70;99.90
8595;DHT22;4335;48.860;9.198;2023-03-14T06:03:51;9.80;99.90
8595;DHT22;4335;48.860;9.198;2023-03-14T06:06:26;9.90;99.90
8595;DHT22;4335;48.860;9.198;2023-03-14T06:08:53;9.90;99.90
8595;DHT22;4335;48.860;9.198;2023-03-14T06:11:20;10.00;99.90
8595;DHT22;4335;48.860;9.198;2023-03-14T06:13:48;10.00;99.90
8595;DHT22;4335;48.860;9.198;2023-03-14T06:16:17;10.00;99.90
8595;DHT22;4335;48.860;9.198;2023-03-14T06:18:45;10.10;99.90
8595;DHT22;4335;48.860;9.198;2023-03-14T06:21:14;10.10;99.90
8595;DHT22;4335;48.860;9.198;2023-03-14T06:24:09;10.20;99.90
8595;DHT22;4335;48.860;9.198;2023-03-14T06:26:38;10.20;99.90
8595;DHT22;4335;48.860;9.198;2023-03-14T06:29:07;10.30;99.90
8595;DHT22;4335;48.860;9.198;2023-03-14T06:31:35;10.30;99.90
8595;DHT22;4335;48.860;9.198;2023-03-14T06:34:02;10.40;99.90
8595;DHT22;4335;48.860;9.198;2023-03-14T06:36:30;10.50;99.90
8595;DHT22;4335;48.860;9.198;2023-03-14T06:39:03;10.60;99.90
8595;DHT22;4335;48.860;9.198;2023-03-14T06:41:32;10.70;99.90
8595;DHT22;4335;48.860;9.198;2023-03-14T06:44:02;10.80;99.90
8595;DHT22;4335;48.860;9.198;2023-03-14T06:46:33;10.80;99.90
8595;DHT22;4335;48.860;9.198;2023-03-14T06:49:00;11.00;99.90
8595;DHT22;4335;48.860;9.198;2023-03-14T06:51:33;11.10;99.90
8595;DHT22;4335;48.860;9.198;2023-03-14T06:54:04;11.10;99.90
8595;DHT22;4335;48.860;9.198;2023-03-14T06:56:35;11.10;99.90
8595;DHT22;4335;48.860;9.198;2023-03-14T06:59:18;11.00;99.90
8595;DHT22;4335;48.860;9.198;2023-03-14T07:01:51;11.00;99.90
8595;DHT22;4335;48.860;9.198;2023-03-14T07:04:22;10.90;99.90
8595;DHT22;4335;48.860;9.198;2023-03-14T07:06:52;10.90;99.90
8595;DHT22;4335;48.860;9.198;2023-03-14T07:09:19;10.90;99.90
8595;DHT22;4335;48.860;9.198;2023-03-14T07:11:48;10.90;99.90
8595;DHT22;4335;48.860;9.198;2023-03-14T07:14:18;10.90;99.90
8595;DHT22;4335;48.860;9.198;2023-03-14T07:16:46;10.90;99.90
8595;DHT22;4335;48.860;9.198;2023-03-14T07:19:13;11.00;99.90
8595;DHT22;4335;48.860;9.198;2023-03-14T07:21:43;11.00;99.90
8595;DHT22;4335;48.860;9.198;2023-03-14T07:24:11;11.00;99.90
8595;DHT22;4335;48.860;9.198;2023-03-14T07:26:38;11.00;99.90
8595;DHT22;4335;48.860;9.198;2023-03-14T07:29:07;11.10;99.90
8595;DHT22;4335;48.860;9.198;2023-03-14T07:31:40;11.10;99.90
8595;DHT22;4335;48.860;9.198;2023-03-14T07:34:14;11.20;99.90
8595;DHT22;4335;48.860;9.198;2023-03-14T07:36:41;11.30;99.90
8595;DHT22;4335;48.860;9.198;2023-03-14T07:39:09;11.40;99.90
8595;DHT22;4335;48.860;9.198;2023-03-14T07:41:38;11.50;99.90
8595;DHT22;4335;48.860;9.198;2023-03-14T07:44:15;11.50;99.90
8595;DHT22;4335;48.860;9.198;2023-03-14T07:46:43;11.70;99.90
8595;DHT22;4335;48.860;9.198;2023-03-14T07:49:10;11.80;99.90
8595;DHT22;4335;48.860;9.198;2023-03-14T07:51:39;12.00;99.90
8595;DHT22;4335;48.860;9.198;2023-03-14T07:54:13;12.00;99.90
8595;DHT22;4335;48.860;9.198;2023-03-14T07:56:43;12.20;99.90
8595;DHT22;4335;48.860;9.198;2023-03-14T07:59:12;12.20;99.90
8595;DHT22;4335;48.860;9.198;2023-03-14T08:01:39;12.10;99.90
8595;DHT22;4335;48.860;9.198;2023-03-14T08:04:13;12.10;99.90
8595;DHT22;4335;48.860;9.198;2023-03-14T08:06:40;12.00;99.90
8595;DHT22;4335;48.860;9.198;2023-03-14T08:09:10;12.00;99.90
8595;DHT22;4335;48.860;9.198;2023-03-14T08:11:38;11.90;99.90
8595;DHT22;4335;48.860;9.198;2023-03-14T08:14:05;11.90;99.90
8595;DHT22;4335;48.860;9.198;2023-03-14T08:16:34;11.90;99.90
8595;DHT22;4335;48.860;9.198;2023-03-14T08:19:01;12.00;99.90
8595;DHT22;4335;48.860;9.198;2023-03-14T08:21:29;12.00;99.90
8595;DHT22;4335;48.860;9.198;2023-03-14T08:23:56;12.00;99.90
8595;DHT22;4335;48.860;9.198;2023-03-14T08:26:24;12.30;99.90
8595;DHT22;4335;48.860;9.198;2023-03-14T08:28:51;12.60;99.90
8595;DHT22;4335;48.860;9.198;2023-03-14T08:31:20;12.80;99.90
8595;DHT22;4335;48.860;9.198;2023-03-14T08:33:58;13.00;99.90
8595;DHT22;4335;48.860;9.198;2023-03-14T08:36:25;13.10;99.90
8595;DHT22;4335;48.860;9.198;2023-03-14T08:38:56;12.90;99.90
8595;DHT22;4335;48.860;9.198;2023-03-14T08:41:23;12.90;99.90
8595;DHT22;4335;48.860;9.198;2023-03-14T08:43:51;12.90;99.90
8595;DHT22;4335;48.860;9.198;2023-03-14T08:46:21;13.00;99.90
8595;DHT22;4335;48.860;9.198;2023-03-14T08:48:50;13.10;99.90
8595;DHT22;4335;48.860;9.198;2023-03-14T08:51:17;13.20;99.90
8595;DHT22;4335;48.860;9.198;2023-03-14T08:53:44;13.20;99.90
8595;DHT22;4335;48.860;9.198;2023-03-14T08:56:12;13.30;99.90
8595;DHT22;4335;48.860;9.198;2023-03-14T08:58:48;13.10;99.90
8595;DHT22;4335;48.860;9.198;2023-03-14T09:01:15;13.10;99.90
8595;DHT22;4335;48.860;9.198;2023-03-14T09:03:44;13.30;99.90
8595;DHT22;4335;48.860;9.198;2023-03-14T09:06:17;13.70;99.90
8595;DHT22;4335;48.860;9.198;2023-03-14T09:08:45;14.00;99.90
8595;DHT22;4335;48.860;9.198;2023-03-14T09:11:13;14.10;99.90
8595;DHT22;4335;48.860;9.198;2023-03-14T09:13:40;14.10;99.90
8595;DHT22;4335;48.860;9.198;2023-03-14T09:16:14;14.10;99.90
8595;DHT22;4335;48.860;9.198;2023-03-14T09:18:50;14.30;99.90
8595;DHT22;4335;48.860;9.198;2023-03-14T09:21:21;14.20;99.90
8595;DHT22;4335;48.860;9.198;2023-03-14T09:23:51;13.90;99.90
8595;DHT22;4335;48.860;9.198;2023-03-14T09:26:19;13.80;99.90
8595;DHT22;4335;48.860;9.198;2023-03-14T09:28:49;13.60;99.90
8595;DHT22;4335;48.860;9.198;2023-03-14T09:31:20;13.70;99.90
8595;DHT22;4335;48.860;9.198;2023-03-14T09:33:47;13.70;99.90
8595;DHT22;4335;48.860;9.198;2023-03-14T09:36:14;13.60;99.90
8595;DHT22;4335;48.860;9.198;2023-03-14T09:38:43;13.70;99.90
8595;DHT22;4335;48.860;9.198;2023-03-14T09:41:16;14.00;99.90
8595;DHT22;4335;48.860;9.198;2023-03-14T09:43:48;14.10;99.90
8595;DHT22;4335;48.860;9.198;2023-03-14T09:46:27;13.90;99.90
8595;DHT22;4335;48.860;9.198;2023-03-14T09:48:57;13.80;99.90
8595;DHT22;4335;48.860;9.198;2023-03-14T09:51:25;13.70;99.90
8595;DHT22;4335;48.860;9.198;2023-03-14T09:53:54;13.50;99.90
8595;DHT22;4335;48.860;9.198;2023-03-14T09:56:23;13.50;99.90
8595;DHT22;4335;48.860;9.198;2023-03-14T09:58:58;13.40;99.90
8595;DHT22;4335;48.860;9.198;2023-03-14T10:01:30;13.50;99.90
8595;DHT22;4335;48.860;9.198;2023-03-14T10:04:02;13.50;99.90
8595;DHT22;4335;48.860;9.198;2023-03-14T10:06:31;13.70;99.90
8595;DHT22;4335;48.860;9.198;2023-03-14T10:09:03;14.30;99.90
8595;DHT22;4335;48.860;9.198;2023-03-14T10:11:39;14.60;99.90
8595;DHT22;4335;48.860;9.198;2023-03-14T10:14:10;14.90;99.90
8595;DHT22;4335;48.860;9.198;2023-03-14T10:16:42;16.40;99.90
8595;DHT22;4335;48.860;9.198;2023-03-14T10:19:18;18.80;99.90
8595;DHT22;4335;48.860;9.198;2023-03-14T10:21:53;21.00;99.90
8595;DHT22;4335;48.860;9.198;2023-03-14T10:24:27;22.20;98.00
8595;DHT22;4335;48.860;9.198;2023-03-14T10:26:58;22.40;95.80
8595;DHT22;4335;48.860;9.198;2023-03-14T10:29:27;23.50;92.10
8595;DHT22;4335;48.860;9.198;2023-03-14T10:32:00;23.80;89.00
8595;DHT22;4335;48.860;9.198;2023-03-14T10:34:31;22.50;89.20
8595;DHT22;4335;48.860;9.198;2023-03-14T10:37:07;21.60;91.10
8595;DHT22;4335;48.860;9.198;2023-03-14T10:39:41;20.00;93.70
8595;DHT22;4335;48.860;9.198;2023-03-14T10:42:25;18.10;97.80
8595;DHT22;4335;48.860;9.198;2023-03-14T10:44:57;17.10;99.90
8595;DHT22;4335;48.860;9.198;2023-03-14T10:47:27;15.90;99.90
8595;DHT22;4335;48.860;9.198;2023-03-14T10:49:55;15.00;99.90
8595;DHT22;4335;48.860;9.198;2023-03-14T10:52:24;14.80;99.90
8595;DHT22;4335;48.860;9.198;2023-03-14T10:55:00;14.80;99.90
8595;DHT22;4335;48.860;9.198;2023-03-14T10:57:28;14.60;99.90
8595;DHT22;4335;48.860;9.198;2023-03-14T10:59:56;14.60;99.90
8595;DHT22;4335;48.860;9.198;2023-03-14T11:02:34;14.30;99.90
8595;DHT22;4335;48.860;9.198;2023-03-14T11:05:24;14.10;99.90
8595;DHT22;4335;48.860;9.198;2023-03-14T11:07:58;13.90;99.90
8595;DHT22;4335;48.860;9.198;2023-03-14T11:10:32;13.90;99.90
8595;DHT22;4335;48.860;9.198;2023-03-14T11:13:16;13.60;99.90
8595;DHT22;4335;48.860;9.198;2023-03-14T11:15:57;13.50;99.90
8595;DHT22;4335;48.860;9.198;2023-03-14T11:18:49;13.30;99.90
8595;DHT22;4335;48.860;9.198;2023-03-14T11:21:23;13.10;99.90
8595;DHT22;4335;48.860;9.198;2023-03-14T11:24:00;13.10;99.90
8595;DHT22;4335;48.860;9.198;2023-03-14T11:26:35;12.90;99.90
8595;DHT22;4335;48.860;9.198;2023-03-14T11:29:19;12.80;99.90
8595;DHT22;4335;48.860;9.198;2023-03-14T11:31:47;12.60;99.90
8595;DHT22;4335;48.860;9.198;2023-03-14T11:34:17;12.40;99.90
8595;DHT22;4335;48.860;9.198;2023-03-14T11:36:53;12.20;99.90
8595;DHT22;4335;48.860;9.198;2023-03-14T11:39:24;12.30;99.90
8595;DHT22;4335;48.860;9.198;2023-03-14T11:42:01;12.20;99.90
8595;DHT22;4335;48.860;9.198;2023-03-14T11:44:32;12.30;99.90
8595;DHT22;4335;48.860;9.198;2023-03-14T11:47:04;12.30;99.90
8595;DHT22;4335;48.860;9.198;2023-03-14T11:49:40;12.30;99.90
8595;DHT22;4335;48.860;9.198;2023-03-14T11:52:24;12.40;99.90
8595;DHT22;4335;48.860;9.198;2023-03-14T11:54:58;12.50;99.90
8595;DHT22;4335;48.860;9.198;2023-03-14T11:57:39;12.50;99.90
8595;DHT22;4335;48.860;9.198;2023-03-14T12:00:15;12.30;99.90
8595;DHT22;4335;48.860;9.198;2023-03-14T12:02:48;12.20;99.90
8595;DHT22;4335;48.860;9.198;2023-03-14T12:05:43;12.10;99.90
8595;DHT22;4335;48.860;9.198;2023-03-14T12:08:26;11.80;99.90
8595;DHT22;4335;48.860;9.198;2023-03-14T12:11:04;11.70;99.90
8595;DHT22;4335;48.860;9.198;2023-03-14T12:13:52;11.60;99.90
8595;DHT22;4335;48.860;9.198;2023-03-14T12:16:37;11.60;99.90
8595;DHT22;4335;48.860;9.198;2023-03-14T12:19:38;11.60;99.90
8595;DHT22;4335;48.860;9.198;2023-03-14T12:22:40;11.70;99.90
8595;DHT22;4335;48.860;9.198;2023-03-14T12:25:17;11.80;99.90
8595;DHT22;4335;48.860;9.198;2023-03-14T12:28:05;11.90;99.90
8595;DHT22;4335;48.860;9.198;2023-03-14T12:30:44;11.80;99.90
8595;DHT22;4335;48.860;9.198;2023-03-14T12:33:32;11.70;99.90
8595;DHT22;4335;48.860;9.198;2023-03-14T12:36:44;11.60;99.90
8595;DHT22;4335;48.860;9.198;2023-03-14T12:39:29;11.50;99.90
8595;DHT22;4335;48.860;9.198;2023-03-14T12:42:07;11.30;99.90
8595;DHT22;4335;48.860;9.198;2023-03-14T12:44:49;11.20;99.90
8595;DHT22;4335;48.860;9.198;2023-03-14T12:47:52;11.00;99.90
8595;DHT22;4335;48.860;9.198;2023-03-14T12:50:31;11.00;99.90
8595;DHT22;4335;48.860;9.198;2023-03-14T12:56:25;11.20;99.90
8595;DHT22;4335;48.860;9.198;2023-03-14T12:59:17;11.20;99.90
8595;DHT22;4335;48.860;9.198;2023-03-14T13:01:55;11.20;99.90
8595;DHT22;4335;48.860;9.198;2023-03-14T13:04:29;11.20;99.90
8595;DHT22;4335;48.860;9.198;2023-03-14T13:07:02;11.10;99.90
8595;DHT22;4335;48.860;9.198;2023-03-14T13:12:25;11.00;99.90
8595;DHT22;4335;48.860;9.198;2023-03-14T13:15:00;10.90;99.90
8595;DHT22;4335;48.860;9.198;2023-03-14T13:17:32;11.00;99.90
8595;DHT22;4335;48.860;9.198;2023-03-14T13:20:09;11.00;99.90
8595;DHT22;4335;48.860;9.198;2023-03-14T13:22:38;11.00;99.90
8595;DHT22;4335;48.860;9.198;2023-03-14T13:25:07;11.10;99.90
8595;DHT22;4335;48.860;9.198;2023-03-14T13:27:36;11.10;99.90
8595;DHT22;4335;48.860;9.198;2023-03-14T13:30:20;11.00;99.90
8595;DHT22;4335;48.860;9.198;2023-03-14T13:32:49;11.00;99.90
8595;DHT22;4335;48.860;9.198;2023-03-14T13:35:22;10.90;99.90
8595;DHT22;4335;48.860;9.198;2023-03-14T13:37:56;11.00;99.90
8595;DHT22;4335;48.860;9.198;2023-03-14T13:40:30;10.80;99.90
8595;DHT22;4335;48.860;9.198;2023-03-14T13:43:11;10.90;99.90
8595;DHT22;4335;48.860;9.198;2023-03-14T13:45:45;10.80;99.90
8595;DHT22;4335;48.860;9.198;2023-03-14T13:48:15;10.80;99.90
8595;DHT22;4335;48.860;9.198;2023-03-14T13:51:03;10.70;99.90
8595;DHT22;4335;48.860;9.198;2023-03-14T13:53:31;10.70;99.90
8595;DHT22;4335;48.860;9.198;2023-03-14T13:56:02;10.70;99.90
8595;DHT22;4335;48.860;9.198;2023-03-14T13:58:37;10.90;99.90
8595;DHT22;4335;48.860;9.198;2023-03-14T14:01:14;10.90;99.90
8595;DHT22;4335;48.860;9.198;2023-03-14T14:03:44;10.80;99.90
8595;DHT22;4335;48.860;9.198;2023-03-14T14:06:29;10.80;99.90
8595;DHT22;4335;48.860;9.198;2023-03-14T14:09:14;10.60;99.90
8595;DHT22;4335;48.860;9.198;2023-03-14T14:11:44;10.60;99.90
8595;DHT22;4335;48.860;9.198;2023-03-14T14:14:23;10.60;99.90
8595;DHT22;4335;48.860;9.198;2023-03-14T14:16:52;10.50;99.90
8595;DHT22;4335;48.860;9.198;2023-03-14T14:19:28;10.50;99.90
8595;DHT22;4335;48.860;9.198;2023-03-14T14:21:58;10.50;99.90
8595;DHT22;4335;48.860;9.198;2023-03-14T14:24:30;10.40;99.90
8595;DHT22;4335;48.860;9.198;2023-03-14T14:27:00;10.40;99.90
8595;DHT22;4335;48.860;9.198;2023-03-14T14:29:29;10.30;99.90
8595;DHT22;4335;48.860;9.198;2023-03-14T14:32:08;10.30;99.90
8595;DHT22;4335;48.860;9.198;2023-03-14T14:34:40;10.20;99.90
8595;DHT22;4335;48.860;9.198;2023-03-14T14:37:19;10.20;99.90
8595;DHT22;4335;48.860;9.198;2023-03-14T14:39:48;10.30;99.90
8595;DHT22;4335;48.860;9.198;2023-03-14T14:42:16;10.30;99.90
8595;DHT22;4335;48.860;9.198;2023-03-14T14:44:44;10.30;99.90
8595;DHT22;4335;48.860;9.198;2023-03-14T14:47:13;10.30;99.90
8595;DHT22;4335;48.860;9.198;2023-03-14T14:49:47;10.30;99.90
8595;DHT22;4335;48.860;9.198;2023-03-14T14:52:40;10.20;99.90
8595;DHT22;4335;48.860;9.198;2023-03-14T14:55:13;10.30;99.90
8595;DHT22;4335;48.860;9.198;2023-03-14T14:57:49;10.30;99.90
8595;DHT22;4335;48.860;9.198;2023-03-14T15:00:19;10.20;99.90
8595;DHT22;4335;48.860;9.198;2023-03-14T15:02:48;10.20;99.90
8595;DHT22;4335;48.860;9.198;2023-03-14T15:05:19;10.10;99.90
8595;DHT22;4335;48.860;9.198;2023-03-14T15:07:49;10.10;99.90
8595;DHT22;4335;48.860;9.198;2023-03-14T15:10:18;10.20;99.90
8595;DHT22;4335;48.860;9.198;2023-03-14T15:12:47;10.20;99.90
8595;DHT22;4335;48.860;9.198;2023-03-14T15:15:16;10.10;99.90
8595;DHT22;4335;48.860;9.198;2023-03-14T15:17:44;10.10;99.90
8595;DHT22;4335;48.860;9.198;2023-03-14T15:20:15;10.20;99.90
8595;DHT22;4335;48.860;9.198;2023-03-14T15:22:51;10.30;99.90
8595;DHT22;4335;48.860;9.198;2023-03-14T15:25:21;10.50;99.90
8595;DHT22;4335;48.860;9.198;2023-03-14T15:27:52;10.50;99.90
8595;DHT22;4335;48.860;9.198;2023-03-14T15:30:22;10.50;99.90
8595;DHT22;4335;48.860;9.198;2023-03-14T15:32:50;10.60;99.90
8595;DHT22;4335;48.860;9.198;2023-03-14T15:35:18;10.50;99.90
8595;DHT22;4335;48.860;9.198;2023-03-14T15:37:47;10.30;99.90
8595;DHT22;4335;48.860;9.198;2023-03-14T15:40:16;10.20;99.90
8595;DHT22;4335;48.860;9.198;2023-03-14T15:42:47;10.10;99.90
8595;DHT22;4335;48.860;9.198;2023-03-14T15:45:17;10.00;99.90
8595;DHT22;4335;48.860;9.198;2023-03-14T15:47:54;10.10;99.90
8595;DHT22;4335;48.860;9.198;2023-03-14T15:50:21;10.10;99.90
8595;DHT22;4335;48.860;9.198;2023-03-14T15:52:49;10.10;99.90
8595;DHT22;4335;48.860;9.198;2023-03-14T15:55:18;10.10;99.90
8595;DHT22;4335;48.860;9.198;2023-03-14T15:57:45;10.10;99.90
8595;DHT22;4335;48.860;9.198;2023-03-14T16:00:15;10.10;99.90
8595;DHT22;4335;48.860;9.198;2023-03-14T16:02:48;10.00;99.90
8595;DHT22;4335;48.860;9.198;2023-03-14T16:05:17;10.10;99.90
8595;DHT22;4335;48.860;9.198;2023-03-14T16:07:51;10.20;99.90
8595;DHT22;4335;48.860;9.198;2023-03-14T16:10:20;10.30;99.90
8595;DHT22;4335;48.860;9.198;2023-03-14T16:12:47;10.20;99.90
8595;DHT22;4335;48.860;9.198;2023-03-14T16:15:18;10.20;99.90
8595;DHT22;4335;48.860;9.198;2023-03-14T16:17:45;10.10;99.90
8595;DHT22;4335;48.860;9.198;2023-03-14T16:20:13;10.10;99.90
8595;DHT22;4335;48.860;9.198;2023-03-14T16:22:40;10.00;99.90
8595;DHT22;4335;48.860;9.198;2023-03-14T16:25:17;9.90;99.90
8595;DHT22;4335;48.860;9.198;2023-03-14T16:27:49;9.80;99.90
8595;DHT22;4335;48.860;9.198;2023-03-14T16:30:16;9.70;99.90
8595;DHT22;4335;48.860;9.198;2023-03-14T16:32:45;9.60;99.90
8595;DHT22;4335;48.860;9.198;2023-03-14T16:35:13;9.60;99.90
8595;DHT22;4335;48.860;9.198;2023-03-14T16:37:41;9.60;99.90
8595;DHT22;4335;48.860;9.198;2023-03-14T16:40:09;9.60;99.90
8595;DHT22;4335;48.860;9.198;2023-03-14T16:42:40;9.50;99.90
8595;DHT22;4335;48.860;9.198;2023-03-14T16:45:10;9.40;99.90